sensor_id;sensor_type;location;lat;lon;timestamp;temperature;humidity
43561;DHT22;32305;46.410;17.394;2023-05-07T00:02:01;23.30;44.50
43561;DHT22;32305;46.410;17.394;2023-05-07T00:04:29;23.30;44.60
43561;DHT22;32305;46.410;17.394;2023-05-07T00:07:03;23.30;44.60
43561;DHT22;32305;46.410;17.394;2023-05-07T00:09:30;23.30;44.60
43561;DHT22;32305;46.410;17.394;2023-05-07T00:11:57;23.30;44.70
43561;DHT22;32305;46.410;17.394;2023-05-07T00:14:24;23.30;44.70
43561;DHT22;32305;46.410;17.394;2023-05-07T00:16:51;23.30;44.70
43561;DHT22;32305;46.410;17.394;2023-05-07T00:19:19;23.30;44.70
43561;DHT22;32305;46.410;17.394;2023-05-07T00:21:46;23.30;44.70
43561;DHT22;32305;46.410;17.394;2023-05-07T00:24:13;23.30;44.70
43561;DHT22;32305;46.410;17.394;2023-05-07T00:26:40;23.30;44.70
43561;DHT22;32305;46.410;17.394;2023-05-07T00:29:07;23.30;44.70
43561;DHT22;32305;46.410;17.394;2023-05-07T00:31:34;23.20;44.70
43561;DHT22;32305;46.410;17.394;2023-05-07T00:34:02;23.30;44.70
43561;DHT22;32305;46.410;17.394;2023-05-07T00:36:29;23.30;44.70
43561;DHT22;32305;46.410;17.394;2023-05-07T00:38:59;23.30;44.70
43561;DHT22;32305;46.410;17.394;2023-05-07T00:41:26;23.30;44.60
43561;DHT22;32305;46.410;17.394;2023-05-07T00:43:54;23.30;44.60
43561;DHT22;32305;46.410;17.394;2023-05-07T00:46:21;23.30;44.60
43561;DHT22;32305;46.410;17.394;2023-05-07T00:48:49;23.30;44.60
43561;DHT22;32305;46.410;17.394;2023-05-07T00:51:17;23.30;44.60
43561;DHT22;32305;46.410;17.394;2023-05-07T00:53:45;23.30;44.60
43561;DHT22;32305;46.410;17.394;2023-05-07T00:56:13;23.30;44.60
43561;DHT22;32305;46.410;17.394;2023-05-07T00:58:40;23.30;44.70
43561;DHT22;32305;46.410;17.394;2023-05-07T01:01:08;23.30;44.70
43561;DHT22;32305;46.410;17.394;2023-05-07T01:03:35;23.20;44.60
43561;DHT22;32305;46.410;17.394;2023-05-07T01:06:03;23.30;44.60
43561;DHT22;32305;46.410;17.394;2023-05-07T01:08:32;23.30;44.60
43561;DHT22;32305;46.410;17.394;2023-05-07T01:11:01;23.30;44.70
43561;DHT22;32305;46.410;17.394;2023-05-07T01:13:29;23.20;44.60
43561;DHT22;32305;46.410;17.394;2023-05-07T01:15:56;23.20;44.60
43561;DHT22;32305;46.410;17.394;2023-05-07T01:18:23;23.20;44.70
43561;DHT22;32305;46.410;17.394;2023-05-07T01:20:52;23.20;44.70
43561;DHT22;32305;46.410;17.394;2023-05-07T01:23:21;23.20;44.70
43561;DHT22;32305;46.410;17.394;2023-05-07T01:25:53;23.20;44.70
43561;DHT22;32305;46.410;17.394;2023-05-07T01:28:20;23.20;44.70
43561;DHT22;32305;46.410;17.394;2023-05-07T01:30:52;23.20;44.80
43561;DHT22;32305;46.410;17.394;2023-05-07T01:33:21;23.10;44.80
43561;DHT22;32305;46.410;17.394;2023-05-07T01:35:51;23.10;44.90
43561;DHT22;32305;46.410;17.394;2023-05-07T01:38:21;23.10;44.90
43561;DHT22;32305;46.410;17.394;2023-05-07T01:40:49;23.10;45.00
43561;DHT22;32305;46.410;17.394;2023-05-07T01:43:17;23.10;45.00
43561;DHT22;32305;46.410;17.394;2023-05-07T01:45:45;23.10;45.00
43561;DHT22;32305;46.410;17.394;2023-05-07T01:48:14;23.10;45.10
43561;DHT22;32305;46.410;17.394;2023-05-07T01:50:43;23.10;45.10
43561;DHT22;32305;46.410;17.394;2023-05-07T01:53:10;23.10;45.10
43561;DHT22;32305;46.410;17.394;2023-05-07T01:55:37;23.10;45.10
43561;DHT22;32305;46.410;17.394;2023-05-07T01:58:04;23.10;45.10
43561;DHT22;32305;46.410;17.394;2023-05-07T02:00:31;23.10;45.00
43561;DHT22;32305;46.410;17.394;2023-05-07T02:02:59;23.10;45.00
43561;DHT22;32305;46.410;17.394;2023-05-07T02:05:26;23.10;45.00
43561;DHT22;32305;46.410;17.394;2023-05-07T02:07:53;23.10;45.00
43561;DHT22;32305;46.410;17.394;2023-05-07T02:10:20;23.10;45.00
43561;DHT22;32305;46.410;17.394;2023-05-07T02:12:47;23.10;44.90
43561;DHT22;32305;46.410;17.394;2023-05-07T02:15:15;23.10;44.90
43561;DHT22;32305;46.410;17.394;2023-05-07T02:18:03;23.20;44.90
43561;DHT22;32305;46.410;17.394;2023-05-07T02:20:30;23.10;44.90
43561;DHT22;32305;46.410;17.394;2023-05-07T02:22:57;23.20;44.90
43561;DHT22;32305;46.410;17.394;2023-05-07T02:25:24;23.20;44.90
43561;DHT22;32305;46.410;17.394;2023-05-07T02:27:51;23.10;44.90
43561;DHT22;32305;46.410;17.394;2023-05-07T02:30:19;23.10;44.90
43561;DHT22;32305;46.410;17.394;2023-05-07T02:32:48;23.10;44.90
43561;DHT22;32305;46.410;17.394;2023-05-07T02:35:15;23.10;44.90
43561;DHT22;32305;46.410;17.394;2023-05-07T02:37:42;23.20;44.90
43561;DHT22;32305;46.410;17.394;2023-05-07T02:40:10;23.10;44.90
43561;DHT22;32305;46.410;17.394;2023-05-07T02:42:38;23.10;44.90
43561;DHT22;32305;46.410;17.394;2023-05-07T02:45:05;23.10;44.90
43561;DHT22;32305;46.410;17.394;2023-05-07T02:47:33;23.10;44.90
43561;DHT22;32305;46.410;17.394;2023-05-07T02:50:00;23.10;44.90
43561;DHT22;32305;46.410;17.394;2023-05-07T02:52:27;23.10;44.90
43561;DHT22;32305;46.410;17.394;2023-05-07T02:54:54;23.10;45.00
43561;DHT22;32305;46.410;17.394;2023-05-07T02:57:21;23.10;45.00
43561;DHT22;32305;46.410;17.394;2023-05-07T02:59:48;23.10;45.00
43561;DHT22;32305;46.410;17.394;2023-05-07T03:02:15;23.10;45.00
43561;DHT22;32305;46.410;17.394;2023-05-07T03:04:43;23.10;45.00
43561;DHT22;32305;46.410;17.394;2023-05-07T03:07:10;23.10;45.10
43561;DHT22;32305;46.410;17.394;2023-05-07T03:09:37;23.10;45.10
43561;DHT22;32305;46.410;17.394;2023-05-07T03:12:04;23.10;45.20
43561;DHT22;32305;46.410;17.394;2023-05-07T03:14:31;23.10;45.20
43561;DHT22;32305;46.410;17.394;2023-05-07T03:16:58;23.10;45.30
43561;DHT22;32305;46.410;17.394;2023-05-07T03:19:25;23.00;45.20
43561;DHT22;32305;46.410;17.394;2023-05-07T03:21:53;23.00;45.20
43561;DHT22;32305;46.410;17.394;2023-05-07T03:24:20;23.00;45.20
43561;DHT22;32305;46.410;17.394;2023-05-07T03:26:47;23.00;45.20
43561;DHT22;32305;46.410;17.394;2023-05-07T03:29:14;23.00;45.30
43561;DHT22;32305;46.410;17.394;2023-05-07T03:31:42;23.10;45.30
43561;DHT22;32305;46.410;17.394;2023-05-07T03:34:09;23.00;45.20
43561;DHT22;32305;46.410;17.394;2023-05-07T03:36:36;23.00;45.20
43561;DHT22;32305;46.410;17.394;2023-05-07T03:39:03;23.10;45.30
43561;DHT22;32305;46.410;17.394;2023-05-07T03:41:31;23.10;45.30
43561;DHT22;32305;46.410;17.394;2023-05-07T03:43:58;23.10;45.30
43561;DHT22;32305;46.410;17.394;2023-05-07T03:46:26;23.10;45.20
43561;DHT22;32305;46.410;17.394;2023-05-07T03:48:53;23.10;45.20
43561;DHT22;32305;46.410;17.394;2023-05-07T03:51:20;23.10;45.20
43561;DHT22;32305;46.410;17.394;2023-05-07T03:53:47;23.10;45.20
43561;DHT22;32305;46.410;17.394;2023-05-07T03:56:14;23.10;45.10
43561;DHT22;32305;46.410;17.394;2023-05-07T03:58:43;23.10;45.10
43561;DHT22;32305;46.410;17.394;2023-05-07T04:01:11;23.10;45.10
43561;DHT22;32305;46.410;17.394;2023-05-07T04:03:38;23.10;45.00
43561;DHT22;32305;46.410;17.394;2023-05-07T04:06:06;23.10;45.00
43561;DHT22;32305;46.410;17.394;2023-05-07T04:08:33;23.10;45.00
43561;DHT22;32305;46.410;17.394;2023-05-07T04:11:00;23.10;45.00
43561;DHT22;32305;46.410;17.394;2023-05-07T04:13:27;23.10;45.00
43561;DHT22;32305;46.410;17.394;2023-05-07T04:15:55;23.20;45.00
43561;DHT22;32305;46.410;17.394;2023-05-07T04:18:22;23.20;44.90
43561;DHT22;32305;46.410;17.394;2023-05-07T04:20:49;23.20;44.90
43561;DHT22;32305;46.410;17.394;2023-05-07T04:23:16;23.20;44.90
43561;DHT22;32305;46.410;17.394;2023-05-07T04:25:43;23.20;44.80
43561;DHT22;32305;46.410;17.394;2023-05-07T04:28:11;23.30;44.80
43561;DHT22;32305;46.410;17.394;2023-05-07T04:30:38;23.30;44.80
43561;DHT22;32305;46.410;17.394;2023-05-07T04:33:05;23.30;44.80
43561;DHT22;32305;46.410;17.394;2023-05-07T04:35:33;23.30;44.70
43561;DHT22;32305;46.410;17.394;2023-05-07T04:38:01;23.30;44.80
43561;DHT22;32305;46.410;17.394;2023-05-07T04:40:28;23.30;44.80
43561;DHT22;32305;46.410;17.394;2023-05-07T04:42:55;23.40;44.80
43561;DHT22;32305;46.410;17.394;2023-05-07T04:45:22;23.40;44.80
43561;DHT22;32305;46.410;17.394;2023-05-07T04:47:49;23.40;44.80
43561;DHT22;32305;46.410;17.394;2023-05-07T04:50:17;23.40;44.80
43561;DHT22;32305;46.410;17.394;2023-05-07T04:52:46;23.50;44.90
43561;DHT22;32305;46.410;17.394;2023-05-07T04:55:13;23.50;44.90
43561;DHT22;32305;46.410;17.394;2023-05-07T04:57:40;23.50;45.00
43561;DHT22;32305;46.410;17.394;2023-05-07T05:00:08;23.50;45.00
43561;DHT22;32305;46.410;17.394;2023-05-07T05:02:36;23.50;45.10
43561;DHT22;32305;46.410;17.394;2023-05-07T05:05:04;23.60;45.10
43561;DHT22;32305;46.410;17.394;2023-05-07T05:07:31;23.60;45.10
43561;DHT22;32305;46.410;17.394;2023-05-07T05:09:58;23.60;45.20
43561;DHT22;32305;46.410;17.394;2023-05-07T05:12:25;23.60;45.20
43561;DHT22;32305;46.410;17.394;2023-05-07T05:14:52;23.60;45.20
43561;DHT22;32305;46.410;17.394;2023-05-07T05:17:19;23.60;45.20
43561;DHT22;32305;46.410;17.394;2023-05-07T05:19:46;23.70;45.30
43561;DHT22;32305;46.410;17.394;2023-05-07T05:22:13;23.70;45.30
43561;DHT22;32305;46.410;17.394;2023-05-07T05:24:40;23.70;45.30
43561;DHT22;32305;46.410;17.394;2023-05-07T05:27:07;23.70;45.40
43561;DHT22;32305;46.410;17.394;2023-05-07T05:29:35;23.70;45.40
43561;DHT22;32305;46.410;17.394;2023-05-07T05:32:02;23.80;45.50
43561;DHT22;32305;46.410;17.394;2023-05-07T05:34:29;23.80;45.50
43561;DHT22;32305;46.410;17.394;2023-05-07T05:36:56;23.80;45.50
43561;DHT22;32305;46.410;17.394;2023-05-07T05:39:23;23.90;45.50
43561;DHT22;32305;46.410;17.394;2023-05-07T05:41:50;23.90;45.50
43561;DHT22;32305;46.410;17.394;2023-05-07T05:44:17;23.90;45.40
43561;DHT22;32305;46.410;17.394;2023-05-07T05:46:44;23.90;45.40
43561;DHT22;32305;46.410;17.394;2023-05-07T05:49:12;23.90;45.40
43561;DHT22;32305;46.410;17.394;2023-05-07T05:51:39;23.90;45.40
43561;DHT22;32305;46.410;17.394;2023-05-07T05:54:07;24.00;45.50
43561;DHT22;32305;46.410;17.394;2023-05-07T05:56:34;23.90;45.40
43561;DHT22;32305;46.410;17.394;2023-05-07T05:59:01;24.00;45.50
43561;DHT22;32305;46.410;17.394;2023-05-07T06:01:28;24.00;45.40
43561;DHT22;32305;46.410;17.394;2023-05-07T06:03:56;24.00;45.40
43561;DHT22;32305;46.410;17.394;2023-05-07T06:06:23;24.00;45.30
43561;DHT22;32305;46.410;17.394;2023-05-07T06:08:50;24.10;45.30
43561;DHT22;32305;46.410;17.394;2023-05-07T06:11:17;24.10;45.20
43561;DHT22;32305;46.410;17.394;2023-05-07T06:13:44;24.10;45.20
43561;DHT22;32305;46.410;17.394;2023-05-07T06:16:11;24.20;45.20
43561;DHT22;32305;46.410;17.394;2023-05-07T06:18:38;24.20;45.10
43561;DHT22;32305;46.410;17.394;2023-05-07T06:21:05;24.30;45.10
43561;DHT22;32305;46.410;17.394;2023-05-07T06:23:32;24.30;45.00
43561;DHT22;32305;46.410;17.394;2023-05-07T06:25:59;24.30;44.90
43561;DHT22;32305;46.410;17.394;2023-05-07T06:28:26;24.40;44.90
43561;DHT22;32305;46.410;17.394;2023-05-07T06:30:54;24.40;44.80
43561;DHT22;32305;46.410;17.394;2023-05-07T06:33:21;24.40;44.80
43561;DHT22;32305;46.410;17.394;2023-05-07T06:35:48;24.50;44.80
43561;DHT22;32305;46.410;17.394;2023-05-07T06:38:15;24.50;44.70
43561;DHT22;32305;46.410;17.394;2023-05-07T06:40:42;24.50;44.70
43561;DHT22;32305;46.410;17.394;2023-05-07T06:43:09;24.50;44.70
43561;DHT22;32305;46.410;17.394;2023-05-07T06:45:37;24.60;44.70
43561;DHT22;32305;46.410;17.394;2023-05-07T06:48:05;24.60;44.60
43561;DHT22;32305;46.410;17.394;2023-05-07T06:50:32;24.60;44.50
43561;DHT22;32305;46.410;17.394;2023-05-07T06:52:59;24.70;44.50
43561;DHT22;32305;46.410;17.394;2023-05-07T06:55:26;24.70;44.40
43561;DHT22;32305;46.410;17.394;2023-05-07T06:57:53;24.70;44.40
43561;DHT22;32305;46.410;17.394;2023-05-07T07:00:20;24.70;44.40
43561;DHT22;32305;46.410;17.394;2023-05-07T07:02:48;24.70;44.40
43561;DHT22;32305;46.410;17.394;2023-05-07T07:05:15;24.70;44.40
43561;DHT22;32305;46.410;17.394;2023-05-07T07:07:42;24.70;44.40
43561;DHT22;32305;46.410;17.394;2023-05-07T07:10:09;24.70;44.40
43561;DHT22;32305;46.410;17.394;2023-05-07T07:12:37;24.70;44.40
43561;DHT22;32305;46.410;17.394;2023-05-07T07:15:04;24.70;44.50
43561;DHT22;32305;46.410;17.394;2023-05-07T07:17:31;24.70;44.60
43561;DHT22;32305;46.410;17.394;2023-05-07T07:19:59;24.60;44.60
43561;DHT22;32305;46.410;17.394;2023-05-07T07:22:26;24.60;44.80
43561;DHT22;32305;46.410;17.394;2023-05-07T07:24:53;24.60;44.90
43561;DHT22;32305;46.410;17.394;2023-05-07T07:27:20;24.60;45.00
43561;DHT22;32305;46.410;17.394;2023-05-07T07:29:47;24.60;45.10
43561;DHT22;32305;46.410;17.394;2023-05-07T07:32:14;24.60;45.10
43561;DHT22;32305;46.410;17.394;2023-05-07T07:34:41;24.60;45.20
43561;DHT22;32305;46.410;17.394;2023-05-07T07:37:08;24.60;45.20
43561;DHT22;32305;46.410;17.394;2023-05-07T07:39:35;24.60;45.30
43561;DHT22;32305;46.410;17.394;2023-05-07T07:42:04;24.70;45.30
43561;DHT22;32305;46.410;17.394;2023-05-07T07:44:31;24.70;45.30
43561;DHT22;32305;46.410;17.394;2023-05-07T07:46:58;24.70;45.40
43561;DHT22;32305;46.410;17.394;2023-05-07T07:49:26;24.70;45.40
43561;DHT22;32305;46.410;17.394;2023-05-07T07:51:53;24.70;45.40
43561;DHT22;32305;46.410;17.394;2023-05-07T07:54:20;24.70;45.50
43561;DHT22;32305;46.410;17.394;2023-05-07T07:56:47;24.70;45.50
43561;DHT22;32305;46.410;17.394;2023-05-07T07:59:14;24.70;45.50
43561;DHT22;32305;46.410;17.394;2023-05-07T08:01:45;24.70;45.60
43561;DHT22;32305;46.410;17.394;2023-05-07T08:04:15;24.70;45.60
43561;DHT22;32305;46.410;17.394;2023-05-07T08:06:42;24.70;45.60
43561;DHT22;32305;46.410;17.394;2023-05-07T08:09:09;24.70;45.70
43561;DHT22;32305;46.410;17.394;2023-05-07T08:11:36;24.70;45.70
43561;DHT22;32305;46.410;17.394;2023-05-07T08:14:03;24.70;45.60
43561;DHT22;32305;46.410;17.394;2023-05-07T08:16:30;24.70;45.70
43561;DHT22;32305;46.410;17.394;2023-05-07T08:18:58;24.70;45.70
43561;DHT22;32305;46.410;17.394;2023-05-07T08:21:25;24.70;45.70
43561;DHT22;32305;46.410;17.394;2023-05-07T08:23:52;24.70;45.70
43561;DHT22;32305;46.410;17.394;2023-05-07T08:26:19;24.70;45.70
43561;DHT22;32305;46.410;17.394;2023-05-07T08:28:47;24.70;45.70
43561;DHT22;32305;46.410;17.394;2023-05-07T08:31:14;24.70;45.70
43561;DHT22;32305;46.410;17.394;2023-05-07T08:33:41;24.70;45.70
43561;DHT22;32305;46.410;17.394;2023-05-07T08:36:08;24.70;45.70
43561;DHT22;32305;46.410;17.394;2023-05-07T08:38:35;24.80;45.70
43561;DHT22;32305;46.410;17.394;2023-05-07T08:41:02;24.70;45.70
43561;DHT22;32305;46.410;17.394;2023-05-07T08:43:31;24.80;45.70
43561;DHT22;32305;46.410;17.394;2023-05-07T08:46:01;24.80;45.70
43561;DHT22;32305;46.410;17.394;2023-05-07T08:48:29;24.80;45.60
43561;DHT22;32305;46.410;17.394;2023-05-07T08:50:58;24.90;45.60
43561;DHT22;32305;46.410;17.394;2023-05-07T08:53:26;24.90;45.50
43561;DHT22;32305;46.410;17.394;2023-05-07T08:55:53;24.90;45.40
43561;DHT22;32305;46.410;17.394;2023-05-07T08:58:20;24.90;45.30
43561;DHT22;32305;46.410;17.394;2023-05-07T09:00:47;25.00;45.30
43561;DHT22;32305;46.410;17.394;2023-05-07T09:03:14;25.00;45.20
43561;DHT22;32305;46.410;17.394;2023-05-07T09:05:41;25.00;45.20
43561;DHT22;32305;46.410;17.394;2023-05-07T09:08:13;25.00;45.20
43561;DHT22;32305;46.410;17.394;2023-05-07T09:10:41;25.10;45.20
43561;DHT22;32305;46.410;17.394;2023-05-07T09:13:08;25.10;45.20
43561;DHT22;32305;46.410;17.394;2023-05-07T09:15:37;25.10;45.20
43561;DHT22;32305;46.410;17.394;2023-05-07T09:18:04;25.10;45.20
43561;DHT22;32305;46.410;17.394;2023-05-07T09:20:31;25.10;45.20
43561;DHT22;32305;46.410;17.394;2023-05-07T09:22:58;25.10;45.20
43561;DHT22;32305;46.410;17.394;2023-05-07T09:25:30;25.10;45.20
43561;DHT22;32305;46.410;17.394;2023-05-07T09:30:29;25.10;45.20
43561;DHT22;32305;46.410;17.394;2023-05-07T09:32:58;25.10;45.20
43561;DHT22;32305;46.410;17.394;2023-05-07T09:35:26;25.00;45.20
43561;DHT22;32305;46.410;17.394;2023-05-07T09:37:59;25.10;45.20
43561;DHT22;32305;46.410;17.394;2023-05-07T09:40:30;25.10;45.20
43561;DHT22;32305;46.410;17.394;2023-05-07T09:43:09;25.10;45.20
43561;DHT22;32305;46.410;17.394;2023-05-07T09:45:37;25.10;45.20
43561;DHT22;32305;46.410;17.394;2023-05-07T09:48:06;25.10;45.20
43561;DHT22;32305;46.410;17.394;2023-05-07T09:50:44;25.10;45.20
43561;DHT22;32305;46.410;17.394;2023-05-07T09:53:14;25.10;45.10
43561;DHT22;32305;46.410;17.394;2023-05-07T09:55:43;25.10;45.20
43561;DHT22;32305;46.410;17.394;2023-05-07T09:58:12;25.10;45.10
43561;DHT22;32305;46.410;17.394;2023-05-07T10:00:41;25.10;45.10
43561;DHT22;32305;46.410;17.394;2023-05-07T10:03:09;25.10;45.10
43561;DHT22;32305;46.410;17.394;2023-05-07T10:05:38;25.20;45.20
43561;DHT22;32305;46.410;17.394;2023-05-07T10:08:06;25.10;45.00
43561;DHT22;32305;46.410;17.394;2023-05-07T10:10:35;25.20;45.10
43561;DHT22;32305;46.410;17.394;2023-05-07T10:13:02;25.20;45.00
43561;DHT22;32305;46.410;17.394;2023-05-07T10:15:32;25.20;45.00
43561;DHT22;32305;46.410;17.394;2023-05-07T10:18:03;25.10;45.00
43561;DHT22;32305;46.410;17.394;2023-05-07T10:20:31;25.20;45.00
43561;DHT22;32305;46.410;17.394;2023-05-07T10:23:02;25.20;45.00
43561;DHT22;32305;46.410;17.394;2023-05-07T10:25:32;25.20;44.90
43561;DHT22;32305;46.410;17.394;2023-05-07T10:28:03;25.30;45.00
43561;DHT22;32305;46.410;17.394;2023-05-07T10:30:46;25.30;44.90
43561;DHT22;32305;46.410;17.394;2023-05-07T10:33:17;25.30;44.80
43561;DHT22;32305;46.410;17.394;2023-05-07T10:35:46;25.30;44.70
43561;DHT22;32305;46.410;17.394;2023-05-07T10:38:14;25.40;44.70
43561;DHT22;32305;46.410;17.394;2023-05-07T10:40:41;25.40;44.60
43561;DHT22;32305;46.410;17.394;2023-05-07T10:43:09;25.40;44.50
43561;DHT22;32305;46.410;17.394;2023-05-07T10:45:36;25.50;44.50
43561;DHT22;32305;46.410;17.394;2023-05-07T10:48:09;25.50;44.40
43561;DHT22;32305;46.410;17.394;2023-05-07T10:51:17;25.50;44.30
43561;DHT22;32305;46.410;17.394;2023-05-07T10:53:41;25.50;44.20
43561;DHT22;32305;46.410;17.394;2023-05-07T10:56:28;25.60;44.20
43561;DHT22;32305;46.410;17.394;2023-05-07T10:58:55;25.60;44.10
43561;DHT22;32305;46.410;17.394;2023-05-07T11:01:49;25.60;44.00
43561;DHT22;32305;46.410;17.394;2023-05-07T11:04:17;25.70;43.90
43561;DHT22;32305;46.410;17.394;2023-05-07T11:07:20;25.70;43.90
43561;DHT22;32305;46.410;17.394;2023-05-07T11:10:00;25.70;43.80
43561;DHT22;32305;46.410;17.394;2023-05-07T11:12:49;25.80;43.80
43561;DHT22;32305;46.410;17.394;2023-05-07T11:15:35;25.80;43.70
43561;DHT22;32305;46.410;17.394;2023-05-07T11:18:02;25.80;43.60
43561;DHT22;32305;46.410;17.394;2023-05-07T11:20:55;25.80;43.60
43561;DHT22;32305;46.410;17.394;2023-05-07T11:23:56;25.80;43.50
43561;DHT22;32305;46.410;17.394;2023-05-07T11:26:23;25.80;43.40
43561;DHT22;32305;46.410;17.394;2023-05-07T11:28:51;25.80;43.40
43561;DHT22;32305;46.410;17.394;2023-05-07T11:31:24;25.80;43.50
43561;DHT22;32305;46.410;17.394;2023-05-07T11:33:52;25.80;43.50
43561;DHT22;32305;46.410;17.394;2023-05-07T11:36:22;25.80;43.60
43561;DHT22;32305;46.410;17.394;2023-05-07T11:38:49;25.70;43.60
43561;DHT22;32305;46.410;17.394;2023-05-07T11:41:17;25.70;43.70
43561;DHT22;32305;46.410;17.394;2023-05-07T11:43:59;25.70;43.80
43561;DHT22;32305;46.410;17.394;2023-05-07T11:46:27;25.70;43.80
43561;DHT22;32305;46.410;17.394;2023-05-07T11:48:55;25.60;43.80
43561;DHT22;32305;46.410;17.394;2023-05-07T11:51:24;25.60;43.90
43561;DHT22;32305;46.410;17.394;2023-05-07T11:53:53;25.60;43.90
43561;DHT22;32305;46.410;17.394;2023-05-07T11:56:20;25.60;43.90
43561;DHT22;32305;46.410;17.394;2023-05-07T11:58:48;25.60;43.90
43561;DHT22;32305;46.410;17.394;2023-05-07T12:01:16;25.60;43.90
43561;DHT22;32305;46.410;17.394;2023-05-07T12:03:44;25.70;44.00
43561;DHT22;32305;46.410;17.394;2023-05-07T12:06:16;25.60;44.00
43561;DHT22;32305;46.410;17.394;2023-05-07T12:08:44;25.60;44.00
43561;DHT22;32305;46.410;17.394;2023-05-07T12:11:23;25.60;44.00
43561;DHT22;32305;46.410;17.394;2023-05-07T12:13:50;25.60;44.10
43561;DHT22;32305;46.410;17.394;2023-05-07T12:16:18;25.60;44.20
43561;DHT22;32305;46.410;17.394;2023-05-07T12:18:46;25.50;44.30
43561;DHT22;32305;46.410;17.394;2023-05-07T12:21:13;25.50;44.30
43561;DHT22;32305;46.410;17.394;2023-05-07T12:23:41;25.50;44.50
43561;DHT22;32305;46.410;17.394;2023-05-07T12:26:08;25.50;44.60
43561;DHT22;32305;46.410;17.394;2023-05-07T12:28:37;25.40;44.60
43561;DHT22;32305;46.410;17.394;2023-05-07T12:31:08;25.40;44.70
43561;DHT22;32305;46.410;17.394;2023-05-07T12:33:35;25.50;44.80
43561;DHT22;32305;46.410;17.394;2023-05-07T12:36:05;25.50;44.90
43561;DHT22;32305;46.410;17.394;2023-05-07T12:38:40;25.50;44.90
43561;DHT22;32305;46.410;17.394;2023-05-07T12:41:09;25.60;44.90
43561;DHT22;32305;46.410;17.394;2023-05-07T12:43:36;25.60;45.00
43561;DHT22;32305;46.410;17.394;2023-05-07T12:46:06;25.70;44.90
43561;DHT22;32305;46.410;17.394;2023-05-07T12:48:35;25.70;44.90
43561;DHT22;32305;46.410;17.394;2023-05-07T12:51:02;25.80;44.90
43561;DHT22;32305;46.410;17.394;2023-05-07T12:53:30;25.80;44.90
43561;DHT22;32305;46.410;17.394;2023-05-07T12:55:59;25.80;44.90
43561;DHT22;32305;46.410;17.394;2023-05-07T12:58:29;25.80;44.80
43561;DHT22;32305;46.410;17.394;2023-05-07T13:00:58;25.80;44.90
43561;DHT22;32305;46.410;17.394;2023-05-07T13:03:32;25.80;44.90
43561;DHT22;32305;46.410;17.394;2023-05-07T13:06:02;25.80;45.00
43561;DHT22;32305;46.410;17.394;2023-05-07T13:08:35;25.80;45.00
43561;DHT22;32305;46.410;17.394;2023-05-07T13:11:04;25.80;44.90
43561;DHT22;32305;46.410;17.394;2023-05-07T13:13:32;25.90;45.00
43561;DHT22;32305;46.410;17.394;2023-05-07T13:16:00;25.90;45.00
43561;DHT22;32305;46.410;17.394;2023-05-07T13:18:30;25.90;45.00
43561;DHT22;32305;46.410;17.394;2023-05-07T13:20:59;25.90;45.00
43561;DHT22;32305;46.410;17.394;2023-05-07T13:23:27;25.90;45.00
43561;DHT22;32305;46.410;17.394;2023-05-07T13:25:55;25.90;45.00
43561;DHT22;32305;46.410;17.394;2023-05-07T13:28:23;25.90;45.00
43561;DHT22;32305;46.410;17.394;2023-05-07T13:30:51;25.90;45.00
43561;DHT22;32305;46.410;17.394;2023-05-07T13:33:18;25.90;45.00
43561;DHT22;32305;46.410;17.394;2023-05-07T13:35:47;25.90;45.00
43561;DHT22;32305;46.410;17.394;2023-05-07T13:38:14;25.90;45.00
43561;DHT22;32305;46.410;17.394;2023-05-07T13:40:43;25.90;45.00
43561;DHT22;32305;46.410;17.394;2023-05-07T13:43:10;26.00;45.00
43561;DHT22;32305;46.410;17.394;2023-05-07T13:45:37;25.90;44.90
43561;DHT22;32305;46.410;17.394;2023-05-07T13:48:04;26.00;45.00
43561;DHT22;32305;46.410;17.394;2023-05-07T13:50:32;26.00;45.00
43561;DHT22;32305;46.410;17.394;2023-05-07T13:52:59;26.00;45.00
43561;DHT22;32305;46.410;17.394;2023-05-07T13:55:29;26.00;44.90
43561;DHT22;32305;46.410;17.394;2023-05-07T13:58:00;26.00;44.90
43561;DHT22;32305;46.410;17.394;2023-05-07T14:00:28;26.00;44.90
43561;DHT22;32305;46.410;17.394;2023-05-07T14:02:56;26.00;45.00
43561;DHT22;32305;46.410;17.394;2023-05-07T14:05:23;26.00;45.00
43561;DHT22;32305;46.410;17.394;2023-05-07T14:07:51;26.00;45.00
43561;DHT22;32305;46.410;17.394;2023-05-07T14:10:19;25.90;45.00
43561;DHT22;32305;46.410;17.394;2023-05-07T14:12:47;26.00;45.00
43561;DHT22;32305;46.410;17.394;2023-05-07T14:15:14;25.90;45.00
43561;DHT22;32305;46.410;17.394;2023-05-07T14:17:43;26.00;45.00
43561;DHT22;32305;46.410;17.394;2023-05-07T14:20:11;25.90;44.90
43561;DHT22;32305;46.410;17.394;2023-05-07T14:22:39;25.90;44.90
43561;DHT22;32305;46.410;17.394;2023-05-07T14:25:07;26.00;45.00
43561;DHT22;32305;46.410;17.394;2023-05-07T14:27:36;25.90;44.90
43561;DHT22;32305;46.410;17.394;2023-05-07T14:30:04;25.90;44.90
43561;DHT22;32305;46.410;17.394;2023-05-07T14:32:32;26.00;45.00
43561;DHT22;32305;46.410;17.394;2023-05-07T14:35:00;26.00;45.00
43561;DHT22;32305;46.410;17.394;2023-05-07T14:37:27;25.90;44.80
43561;DHT22;32305;46.410;17.394;2023-05-07T14:39:54;26.00;44.90
43561;DHT22;32305;46.410;17.394;2023-05-07T14:42:22;26.00;44.90
43561;DHT22;32305;46.410;17.394;2023-05-07T14:44:49;25.90;44.80
43561;DHT22;32305;46.410;17.394;2023-05-07T14:47:16;26.00;44.90
43561;DHT22;32305;46.410;17.394;2023-05-07T14:49:45;26.00;44.90
43561;DHT22;32305;46.410;17.394;2023-05-07T14:52:12;25.90;44.80
43561;DHT22;32305;46.410;17.394;2023-05-07T14:54:39;26.00;44.80
43561;DHT22;32305;46.410;17.394;2023-05-07T14:57:10;25.90;44.70
43561;DHT22;32305;46.410;17.394;2023-05-07T14:59:40;26.00;44.80
43561;DHT22;32305;46.410;17.394;2023-05-07T15:02:09;26.00;44.70
43561;DHT22;32305;46.410;17.394;2023-05-07T15:04:37;26.00;44.70
43561;DHT22;32305;46.410;17.394;2023-05-07T15:07:05;26.00;44.70
43561;DHT22;32305;46.410;17.394;2023-05-07T15:09:32;26.00;44.60
43561;DHT22;32305;46.410;17.394;2023-05-07T15:11:59;26.00;44.60
43561;DHT22;32305;46.410;17.394;2023-05-07T15:14:27;26.00;44.60
43561;DHT22;32305;46.410;17.394;2023-05-07T15:16:54;26.00;44.60
43561;DHT22;32305;46.410;17.394;2023-05-07T15:19:21;26.00;44.60
43561;DHT22;32305;46.410;17.394;2023-05-07T15:21:49;26.00;44.60
43561;DHT22;32305;46.410;17.394;2023-05-07T15:24:16;26.00;44.60
43561;DHT22;32305;46.410;17.394;2023-05-07T15:26:43;26.00;44.60